Decoded Metar for KSRE (SEMINOLE in OK, USA) (IATA:SRE) | Meteo·Mobile Aviation Weather
aviador You're here:

KSRE Decoded Metar

SEMINOLE in OK, USA
Report Time2019-01-21 15:35:00
UTC Time2019-01-21 15:58:03
Flight Rules vfr VFR
Wind170° at 09 Gusting to 16 kt
W.Decomp.*RWY 16: 9.0 kt HW 0.6 kt RCW
RWY 23: 3.7 kt HW 8.2 kt LCW
W.Rank170° ranks 2
Current wind is above 170° avg. (8.9)
Visibility9999 m
Phenomena:N/A
Clouds:N/A
Expected CloudBase > 3,200 ft AGL from Temp-Dew spread
CeilingNone
Temp05°C (ISA -8)
Dew Point-3°C (57% RH)
AAT-0.6°C
QNH1018 hPa
Density Alt-33 ft
Elevation1,024 ft
Report Wrong Elevation
Raw Report
KSRE 211535Z AUTO 17009G16KT 140V200 10SM CLR 05/M03 A3006 RMK
AO2=

Extra information for KSRE:More info

Airport Information Weather charts Add Link Nearby Venues Social comments

AIRNAV info for KSRE